createdAt,value
2022-10-15T00:00:53.152Z,15.80
2022-10-15T00:03:22.259Z,15.81
2022-10-15T00:05:50.026Z,15.76
2022-10-15T00:08:17.786Z,15.77
2022-10-15T00:10:45.499Z,15.81
2022-10-15T00:13:13.290Z,15.80
2022-10-15T00:15:40.974Z,15.78
2022-10-15T00:18:08.676Z,15.80
2022-10-15T00:20:37.878Z,15.74
2022-10-15T00:23:05.623Z,15.73
2022-10-15T00:25:33.446Z,15.73
2022-10-15T00:28:01.133Z,15.72
2022-10-15T00:30:28.908Z,15.76
2022-10-15T00:32:56.605Z,15.87
2022-10-15T00:35:24.656Z,15.95
2022-10-15T00:37:53.737Z,15.98
2022-10-15T00:40:21.438Z,16.02
2022-10-15T00:42:49.214Z,16.06
2022-10-15T00:45:17.567Z,16.09
2022-10-15T00:47:48.651Z,16.08
2022-10-15T00:50:22.744Z,16.07
2022-10-15T00:53:01.236Z,16.10
2022-10-15T00:55:31.610Z,16.12
2022-10-15T00:58:03.781Z,16.03
2022-10-15T01:00:31.600Z,16.07
2022-10-15T01:03:00.747Z,15.70
2022-10-15T01:05:29.837Z,15.88
2022-10-15T01:07:59.965Z,15.99
2022-10-15T01:10:37.588Z,15.98
2022-10-15T01:13:15.627Z,16.01
2022-10-15T01:15:48.822Z,16.01
2022-10-15T01:18:21.487Z,16.00
2022-10-15T01:21:05.846Z,15.80
2022-10-15T01:23:56.905Z,15.68
2022-10-15T01:26:43.563Z,15.71
2022-10-15T01:29:23.776Z,15.71
2022-10-15T01:32:00.623Z,15.58
2022-10-15T01:34:37.309Z,15.63
2022-10-15T01:37:13.556Z,15.57
2022-10-15T01:39:46.464Z,15.54
2022-10-15T01:42:19.100Z,15.55
2022-10-15T01:44:52.554Z,15.48
2022-10-15T01:47:49.579Z,15.52
2022-10-15T01:50:21.878Z,15.44
2022-10-15T01:52:51.470Z,15.48
2022-10-15T01:55:22.237Z,15.47
2022-10-15T01:57:51.046Z,15.34
2022-10-15T02:00:19.141Z,15.35
2022-10-15T02:02:48.232Z,15.36
2022-10-15T02:05:21.755Z,15.31
2022-10-15T02:08:00.381Z,15.26
2022-10-15T02:10:31.723Z,15.33
2022-10-15T02:13:10.998Z,15.26
2022-10-15T02:15:46.935Z,15.20
2022-10-15T02:18:22.008Z,15.21
2022-10-15T02:20:57.608Z,15.18
2022-10-15T02:23:29.639Z,15.21
2022-10-15T02:26:05.298Z,15.24
2022-10-15T02:28:35.581Z,15.20
2022-10-15T02:31:06.558Z,15.26
2022-10-15T02:33:38.899Z,15.35
2022-10-15T02:36:08.058Z,15.26
2022-10-15T02:38:37.904Z,15.23
2022-10-15T02:41:06.322Z,15.25
2022-10-15T02:43:34.015Z,15.38
2022-10-15T02:46:01.912Z,15.29
2022-10-15T02:48:29.815Z,15.33
2022-10-15T02:50:58.912Z,15.34
2022-10-15T02:53:26.664Z,15.37
2022-10-15T02:55:54.457Z,15.36
2022-10-15T02:58:22.202Z,15.54
2022-10-15T03:00:50.490Z,15.47
2022-10-15T03:03:18.641Z,15.62
2022-10-15T03:05:46.737Z,15.65
2022-10-15T03:08:16.630Z,15.67
2022-10-15T03:10:45.582Z,15.70
2022-10-15T03:13:13.896Z,15.72
2022-10-15T03:15:48.204Z,15.73
2022-10-15T03:18:16.904Z,15.71
2022-10-15T03:20:45.007Z,15.69
2022-10-15T03:23:14.114Z,15.68
2022-10-15T03:25:43.202Z,15.68
2022-10-15T03:28:18.362Z,15.70
2022-10-15T03:30:46.431Z,15.65
2022-10-15T03:33:14.444Z,15.64
2022-10-15T03:35:42.729Z,15.63
2022-10-15T03:38:10.691Z,15.67
2022-10-15T03:40:38.959Z,15.67
2022-10-15T03:43:21.269Z,15.69
2022-10-15T03:45:49.060Z,15.70
2022-10-15T03:48:22.747Z,15.70
2022-10-15T03:50:50.478Z,15.69
2022-10-15T03:53:18.277Z,15.70
2022-10-15T03:55:46.175Z,15.69
2022-10-15T03:58:13.930Z,15.68
2022-10-15T04:00:50.316Z,15.66
2022-10-15T04:03:18.101Z,15.65
2022-10-15T04:05:53.861Z,15.65
2022-10-15T04:08:24.855Z,15.63
2022-10-15T04:10:52.755Z,15.63
2022-10-15T04:13:20.946Z,15.63
2022-10-15T04:15:49.999Z,15.66
2022-10-15T04:18:20.578Z,15.66
2022-10-15T04:20:51.764Z,15.69
2022-10-15T04:23:23.488Z,15.69
2022-10-15T04:26:11.292Z,15.70
2022-10-15T04:28:39.227Z,15.73
2022-10-15T04:31:09.739Z,15.79
2022-10-15T04:33:37.606Z,15.78
2022-10-15T04:36:07.600Z,15.80
2022-10-15T04:38:49.736Z,15.79
2022-10-15T04:41:26.690Z,15.80
2022-10-15T04:44:04.819Z,15.79
2022-10-15T04:46:34.929Z,15.80
2022-10-15T04:49:11.292Z,15.75
2022-10-15T04:51:41.385Z,15.79
2022-10-15T04:54:13.932Z,15.79
2022-10-15T04:56:56.326Z,15.79
2022-10-15T04:59:24.348Z,15.79
2022-10-15T05:02:19.700Z,15.78
2022-10-15T05:04:53.586Z,15.75
2022-10-15T05:07:22.095Z,15.79
2022-10-15T05:09:51.186Z,15.79
2022-10-15T05:12:20.417Z,15.79
2022-10-15T05:14:48.620Z,15.79
2022-10-15T05:17:24.212Z,15.81
2022-10-15T05:19:52.256Z,15.81
2022-10-15T05:22:25.427Z,15.81
2022-10-15T05:24:57.926Z,15.68
2022-10-15T05:27:37.206Z,15.74
2022-10-15T05:30:07.355Z,15.66
2022-10-15T05:32:56.286Z,15.66
2022-10-15T05:35:24.526Z,15.67
2022-10-15T05:38:10.216Z,15.70
2022-10-15T05:40:40.799Z,15.63
2022-10-15T05:43:16.266Z,15.67
2022-10-15T05:45:46.785Z,15.39
2022-10-15T05:48:16.095Z,15.35
2022-10-15T05:50:43.957Z,15.34
2022-10-15T05:53:16.246Z,15.32
2022-10-15T05:55:48.572Z,15.36
2022-10-15T05:58:16.304Z,15.35
2022-10-15T06:00:43.999Z,15.34
2022-10-15T06:03:15.398Z,15.33
2022-10-15T06:05:43.114Z,15.32
2022-10-15T06:08:10.829Z,15.32
2022-10-15T06:10:41.327Z,15.36
2022-10-15T06:13:09.816Z,15.43
2022-10-15T06:15:40.544Z,15.37
2022-10-15T06:18:10.779Z,15.34
2022-10-15T06:20:40.443Z,15.42
2022-10-15T06:23:08.221Z,15.48
2022-10-15T06:25:37.252Z,15.51
2022-10-15T06:28:06.516Z,15.48
2022-10-15T06:30:42.441Z,15.48
2022-10-15T06:35:44.151Z,15.45
2022-10-15T06:38:12.633Z,15.44
2022-10-15T06:40:40.346Z,15.44
2022-10-15T06:43:09.807Z,15.43
2022-10-15T06:45:39.451Z,15.40
2022-10-15T06:48:13.379Z,15.43
2022-10-15T06:50:41.143Z,15.38
2022-10-15T06:53:10.262Z,15.38
2022-10-15T06:55:39.525Z,15.38
2022-10-15T06:58:07.385Z,15.38
2022-10-15T07:03:08.938Z,15.45
2022-10-15T07:05:36.674Z,15.46
2022-10-15T07:08:04.756Z,15.51
2022-10-15T07:10:34.010Z,15.58
2022-10-15T07:13:01.975Z,15.63
2022-10-15T07:15:29.967Z,15.69
2022-10-15T07:18:01.337Z,15.69
2022-10-15T07:20:30.562Z,15.73
2022-10-15T07:23:01.003Z,15.76
2022-10-15T07:25:31.979Z,15.80
2022-10-15T07:28:01.059Z,15.80
2022-10-15T07:30:29.008Z,15.70
2022-10-15T07:32:57.422Z,15.69
2022-10-15T07:35:25.359Z,15.71
2022-10-15T07:37:56.085Z,15.62
2022-10-15T07:40:24.067Z,15.86
2022-10-15T07:43:06.669Z,15.70
2022-10-15T07:45:35.581Z,15.78
2022-10-15T07:48:03.364Z,15.78
2022-10-15T07:50:34.339Z,15.73
2022-10-15T07:53:09.973Z,15.86
2022-10-15T07:55:38.220Z,15.83
2022-10-15T07:58:08.471Z,15.90
2022-10-15T08:00:36.291Z,15.97
2022-10-15T08:03:04.154Z,15.95
2022-10-15T08:05:31.930Z,15.96
2022-10-15T08:07:59.856Z,15.95
2022-10-15T08:10:27.887Z,15.96
2022-10-15T08:12:55.731Z,16.00
2022-10-15T08:15:24.863Z,15.96
2022-10-15T08:17:52.580Z,16.06
2022-10-15T08:20:20.344Z,16.09
2022-10-15T08:22:48.127Z,16.05
2022-10-15T08:25:15.925Z,16.06
2022-10-15T08:27:43.624Z,16.10
2022-10-15T08:30:12.608Z,16.13
2022-10-15T08:32:41.792Z,16.21
2022-10-15T08:35:10.039Z,16.24
2022-10-15T08:37:37.804Z,16.25
2022-10-15T08:40:07.869Z,16.18
2022-10-15T08:42:40.553Z,16.31
2022-10-15T08:45:13.567Z,16.31
2022-10-15T08:47:48.985Z,16.34
2022-10-15T08:50:28.069Z,16.39
2022-10-15T08:52:58.302Z,16.38
2022-10-15T08:55:35.614Z,16.41
2022-10-15T08:58:14.732Z,16.44
2022-10-15T09:00:48.063Z,16.42
2022-10-15T09:03:29.712Z,16.49
2022-10-15T09:06:11.566Z,16.52
2022-10-15T09:08:46.251Z,16.50
2022-10-15T09:11:20.250Z,16.47
2022-10-15T09:13:49.378Z,16.53
2022-10-15T09:16:29.729Z,16.56
2022-10-15T09:19:01.589Z,16.57
2022-10-15T09:21:31.440Z,16.66
2022-10-15T09:24:02.686Z,16.66
2022-10-15T09:26:36.869Z,16.67
2022-10-15T09:29:15.512Z,16.66
2022-10-15T09:31:47.699Z,16.72
2022-10-15T09:34:23.966Z,16.80
2022-10-15T09:36:54.990Z,16.86
2022-10-15T09:39:42.259Z,16.99
2022-10-15T09:42:23.536Z,17.00
2022-10-15T09:44:53.778Z,17.17
2022-10-15T09:47:26.176Z,17.07
2022-10-15T09:50:03.702Z,17.22
2022-10-15T09:52:52.635Z,17.36
2022-10-15T09:55:36.017Z,17.43
2022-10-15T09:58:10.147Z,17.57
2022-10-15T10:01:03.002Z,17.72
2022-10-15T10:03:36.917Z,17.66
2022-10-15T10:06:10.301Z,17.62
2022-10-15T10:08:52.541Z,17.52
2022-10-15T10:11:21.813Z,17.61
2022-10-15T10:13:53.072Z,17.42
2022-10-15T10:16:22.138Z,17.48
2022-10-15T10:19:06.291Z,17.27
2022-10-15T10:21:39.095Z,17.47
2022-10-15T10:24:28.463Z,17.51
2022-10-15T10:26:57.454Z,17.62
2022-10-15T10:29:34.274Z,17.73
2022-10-15T10:32:11.760Z,17.85
2022-10-15T10:34:39.635Z,17.75
2022-10-15T10:37:10.118Z,17.77
2022-10-15T10:39:38.165Z,17.74
2022-10-15T10:42:07.555Z,17.73
2022-10-15T10:44:37.179Z,17.64
2022-10-15T10:47:12.364Z,17.70
2022-10-15T10:49:42.077Z,17.69
2022-10-15T10:52:27.044Z,17.61
2022-10-15T10:55:02.799Z,17.49
2022-10-15T10:57:45.196Z,17.49
2022-10-15T11:00:17.022Z,17.62
2022-10-15T11:02:49.624Z,17.58
2022-10-15T11:05:22.577Z,17.66
2022-10-15T11:08:00.551Z,17.70
2022-10-15T11:10:36.353Z,17.57
2022-10-15T11:13:22.660Z,17.77
2022-10-15T11:15:57.807Z,17.49
2022-10-15T11:18:38.248Z,17.76
2022-10-15T11:21:18.604Z,17.77
2022-10-15T11:24:17.019Z,17.79
2022-10-15T11:27:10.101Z,17.79
2022-10-15T11:29:52.280Z,17.84
2022-10-15T11:32:42.422Z,17.85
2022-10-15T11:35:51.542Z,17.88
2022-10-15T11:38:30.299Z,17.84
2022-10-15T11:41:13.844Z,17.81
2022-10-15T11:43:56.391Z,17.81
2022-10-15T11:46:32.918Z,17.76
2022-10-15T11:49:15.538Z,17.77
2022-10-15T11:52:07.181Z,17.79
2022-10-15T11:54:40.265Z,17.82
2022-10-15T11:57:14.576Z,17.66
2022-10-15T11:59:49.672Z,17.84
2022-10-15T12:02:22.641Z,17.87
2022-10-15T12:04:53.161Z,17.88
2022-10-15T12:07:24.826Z,17.85
2022-10-15T12:09:55.600Z,17.80
2022-10-15T12:12:38.283Z,17.81
2022-10-15T12:15:23.819Z,17.69
2022-10-15T12:17:56.877Z,17.85
2022-10-15T12:20:27.373Z,17.92
2022-10-15T12:22:58.450Z,17.96
2022-10-15T12:25:45.398Z,18.03
2022-10-15T12:28:21.493Z,18.10
2022-10-15T12:30:59.032Z,18.16
2022-10-15T12:33:40.272Z,18.05
2022-10-15T12:36:22.103Z,18.18
2022-10-15T12:38:59.229Z,18.17
2022-10-15T12:41:38.337Z,18.19
2022-10-15T12:44:09.891Z,18.19
2022-10-15T12:46:39.510Z,18.14
2022-10-15T12:52:56.227Z,18.25
2022-10-15T12:55:28.520Z,18.22
2022-10-15T12:58:15.070Z,18.24
2022-10-15T13:00:44.694Z,18.26
2022-10-15T13:03:21.786Z,18.25
2022-10-15T13:05:53.268Z,18.32
2022-10-15T13:08:32.724Z,18.44
2022-10-15T13:11:02.163Z,18.41
2022-10-15T13:13:32.223Z,18.51
2022-10-15T13:16:03.416Z,18.52
2022-10-15T13:18:32.541Z,18.57
2022-10-15T13:23:32.013Z,18.55
2022-10-15T13:26:13.768Z,18.57
2022-10-15T13:28:43.469Z,18.55
2022-10-15T13:31:18.757Z,18.58
2022-10-15T13:33:50.413Z,18.63
2022-10-15T13:36:23.276Z,18.63
2022-10-15T13:39:00.256Z,18.64
2022-10-15T13:41:30.949Z,18.75
2022-10-15T13:44:01.201Z,18.72
2022-10-15T13:46:32.273Z,18.75
2022-10-15T13:49:02.050Z,18.73
2022-10-15T13:51:35.635Z,18.78
2022-10-15T13:54:08.504Z,18.78
2022-10-15T13:56:36.520Z,18.81
2022-10-15T13:59:04.817Z,18.75
2022-10-15T14:01:36.160Z,18.69
2022-10-15T14:04:04.720Z,18.77
2022-10-15T14:06:34.340Z,18.78
2022-10-15T14:09:12.319Z,18.76
2022-10-15T14:11:40.450Z,18.78
2022-10-15T14:14:30.290Z,18.84
2022-10-15T14:17:01.151Z,18.81
2022-10-15T14:19:31.174Z,18.69
2022-10-15T14:21:59.976Z,18.75
2022-10-15T14:24:33.317Z,18.80
2022-10-15T14:27:09.582Z,18.81
2022-10-15T14:29:41.008Z,18.87
2022-10-15T14:32:25.843Z,18.82
2022-10-15T14:34:55.374Z,18.81
2022-10-15T14:37:43.510Z,18.83
2022-10-15T14:40:21.484Z,18.94
2022-10-15T14:43:01.772Z,18.98
2022-10-15T14:45:31.740Z,19.02
2022-10-15T14:48:03.675Z,19.01
2022-10-15T14:50:34.114Z,18.93
2022-10-15T14:53:08.294Z,18.83
2022-10-15T14:55:40.600Z,18.82
2022-10-15T14:58:09.816Z,18.87
2022-10-15T15:00:42.651Z,18.86
2022-10-15T15:03:17.161Z,18.86
2022-10-15T15:05:47.410Z,18.79
2022-10-15T15:08:15.498Z,18.72
2022-10-15T15:10:44.043Z,18.66
2022-10-15T15:13:13.555Z,18.61
2022-10-15T15:15:42.584Z,18.61
2022-10-15T15:18:11.247Z,18.46
2022-10-15T15:20:43.339Z,18.53
2022-10-15T15:23:15.494Z,18.34
2022-10-15T15:25:43.240Z,17.99
2022-10-15T15:28:14.546Z,17.84
2022-10-15T15:30:43.664Z,17.85
2022-10-15T15:33:13.091Z,17.75
2022-10-15T15:35:50.654Z,17.57
2022-10-15T15:38:19.031Z,17.59
2022-10-15T15:40:46.852Z,17.56
2022-10-15T15:43:16.311Z,17.37
2022-10-15T15:45:45.063Z,17.37
2022-10-15T15:48:12.872Z,17.45
2022-10-15T15:50:42.535Z,17.43
2022-10-15T15:53:14.356Z,17.39
2022-10-15T15:55:42.043Z,17.34
2022-10-15T15:58:09.770Z,17.33
2022-10-15T16:00:37.524Z,17.30
2022-10-15T16:03:05.260Z,17.27
2022-10-15T16:05:33.005Z,17.26
2022-10-15T16:08:02.101Z,17.22
2022-10-15T16:10:29.866Z,17.22
2022-10-15T16:12:57.576Z,17.22
2022-10-15T16:15:25.281Z,17.18
2022-10-15T16:17:53.028Z,17.19
2022-10-15T16:20:21.269Z,17.16
2022-10-15T16:22:50.519Z,17.14
2022-10-15T16:25:20.122Z,17.14
2022-10-15T16:27:49.268Z,17.10
2022-10-15T16:30:17.419Z,17.09
2022-10-15T16:32:45.085Z,17.10
2022-10-15T16:35:12.838Z,17.07
2022-10-15T16:37:40.643Z,17.08
2022-10-15T16:40:09.813Z,17.04
2022-10-15T16:42:38.879Z,17.01
2022-10-15T16:45:07.428Z,17.01
2022-10-15T16:47:35.135Z,17.01
2022-10-15T16:50:02.919Z,16.99
2022-10-15T16:52:30.792Z,17.00
2022-10-15T16:54:58.559Z,16.99
2022-10-15T16:57:27.124Z,16.96
2022-10-15T16:59:56.285Z,16.94
2022-10-15T17:02:24.245Z,16.94
2022-10-15T17:04:52.977Z,16.93
2022-10-15T17:07:20.738Z,16.86
2022-10-15T17:12:17.669Z,16.88
2022-10-15T17:14:50.658Z,16.85
2022-10-15T17:17:20.056Z,16.85
2022-10-15T17:19:47.753Z,16.79
2022-10-15T17:22:15.448Z,16.83
2022-10-15T17:24:43.149Z,16.84
2022-10-15T17:27:10.857Z,16.80
2022-10-15T17:29:38.683Z,16.76
2022-10-15T17:32:06.381Z,16.78
2022-10-15T17:34:35.469Z,16.80
2022-10-15T17:37:03.220Z,16.76
2022-10-15T17:39:30.989Z,16.71
2022-10-15T17:41:59.146Z,16.72
2022-10-15T17:44:26.913Z,16.71
2022-10-15T17:46:54.664Z,16.74
2022-10-15T17:49:28.860Z,16.73
2022-10-15T17:51:57.970Z,16.69
2022-10-15T17:54:25.721Z,16.58
2022-10-15T17:56:53.757Z,16.63
2022-10-15T17:59:21.471Z,16.62
2022-10-15T18:01:58.885Z,16.62
2022-10-15T18:04:28.312Z,16.60
2022-10-15T18:06:56.023Z,16.56
2022-10-15T18:09:29.019Z,16.50
2022-10-15T18:12:00.375Z,16.48
2022-10-15T18:14:34.853Z,16.54
2022-10-15T18:17:02.554Z,16.48
2022-10-15T18:19:30.645Z,16.45
2022-10-15T18:21:58.667Z,16.45
2022-10-15T18:24:27.723Z,16.47
2022-10-15T18:26:55.895Z,16.37
2022-10-15T18:29:25.262Z,16.39
2022-10-15T18:31:57.337Z,16.36
2022-10-15T18:34:27.651Z,16.32
2022-10-15T18:36:55.425Z,16.29
2022-10-15T18:39:24.599Z,16.26
2022-10-15T18:41:53.685Z,16.25
2022-10-15T18:44:23.269Z,16.21
2022-10-15T18:46:51.994Z,16.23
2022-10-15T18:49:20.737Z,16.17
2022-10-15T18:51:51.537Z,16.16
2022-10-15T18:54:19.740Z,16.15
2022-10-15T18:56:47.437Z,16.11
2022-10-15T18:59:20.241Z,16.09
2022-10-15T19:01:49.583Z,16.14
2022-10-15T19:04:20.391Z,16.10
2022-10-15T19:06:49.814Z,16.08
2022-10-15T19:09:19.734Z,16.04
2022-10-15T19:11:49.967Z,15.99
2022-10-15T19:14:18.400Z,15.91
2022-10-15T19:16:47.790Z,15.94
2022-10-15T19:19:17.935Z,15.91
2022-10-15T19:21:46.421Z,15.84
2022-10-15T19:24:15.607Z,15.78
2022-10-15T19:26:44.483Z,15.80
2022-10-15T19:29:12.754Z,15.76
2022-10-15T19:31:41.703Z,15.76
2022-10-15T19:34:11.726Z,15.72
2022-10-15T19:36:42.175Z,15.73
2022-10-15T19:39:13.276Z,15.74
2022-10-15T19:41:43.400Z,15.68
2022-10-15T19:44:13.416Z,15.67
2022-10-15T19:46:41.452Z,15.67
2022-10-15T19:49:13.892Z,15.65
2022-10-15T19:51:45.016Z,15.63
2022-10-15T19:54:21.826Z,15.59
2022-10-15T19:56:49.640Z,15.64
2022-10-15T19:59:18.186Z,15.58
2022-10-15T20:01:46.171Z,15.63
2022-10-15T20:04:15.253Z,15.59
2022-10-15T20:06:46.067Z,15.57
2022-10-15T20:09:13.925Z,15.56
2022-10-15T20:11:41.848Z,15.51
2022-10-15T20:14:09.960Z,15.51
2022-10-15T20:16:38.574Z,15.48
2022-10-15T20:19:09.695Z,15.51
2022-10-15T20:21:39.084Z,15.53
2022-10-15T20:24:08.529Z,15.51
2022-10-15T20:26:36.385Z,15.49
2022-10-15T20:29:04.445Z,15.57
2022-10-15T20:31:34.918Z,15.58
2022-10-15T20:34:03.698Z,15.56
2022-10-15T20:36:31.526Z,15.55
2022-10-15T20:39:04.003Z,15.48
2022-10-15T20:41:31.901Z,15.51
2022-10-15T20:44:01.938Z,15.52
2022-10-15T20:46:32.748Z,15.51
2022-10-15T20:49:07.791Z,15.55
2022-10-15T20:51:37.771Z,15.58
2022-10-15T20:54:11.547Z,15.51
2022-10-15T20:56:40.104Z,15.61
2022-10-15T20:59:08.407Z,15.67
2022-10-15T21:01:36.391Z,15.71
2022-10-15T21:04:05.012Z,15.68
2022-10-15T21:06:35.433Z,15.76
2022-10-15T21:09:03.162Z,15.78
2022-10-15T21:11:39.709Z,15.75
2022-10-15T21:14:07.349Z,15.74
2022-10-15T21:16:35.059Z,15.73
2022-10-15T21:19:02.962Z,15.69
2022-10-15T21:21:32.365Z,15.77
2022-10-15T21:24:00.304Z,15.73
2022-10-15T21:26:28.325Z,15.78
2022-10-15T21:28:58.563Z,15.77
2022-10-15T21:31:27.377Z,15.74
2022-10-15T21:33:55.805Z,15.81
2022-10-15T21:36:26.616Z,15.85
2022-10-15T21:38:59.283Z,15.76
2022-10-15T21:41:29.110Z,15.86
2022-10-15T21:43:58.893Z,15.84
2022-10-15T21:46:26.899Z,15.83
2022-10-15T21:51:42.338Z,15.81
2022-10-15T21:54:10.169Z,15.79
2022-10-15T21:56:38.708Z,15.79
2022-10-15T21:59:07.761Z,15.76
2022-10-15T22:01:38.429Z,15.73
2022-10-15T22:04:07.998Z,15.74
2022-10-15T22:06:39.774Z,15.68
2022-10-15T22:09:08.491Z,15.70
2022-10-15T22:11:38.134Z,15.69
2022-10-15T22:14:08.746Z,15.67
2022-10-15T22:16:38.060Z,15.70
2022-10-15T22:19:08.508Z,15.65
2022-10-15T22:21:38.489Z,15.71
2022-10-15T22:24:09.146Z,15.74
2022-10-15T22:26:39.226Z,15.72
2022-10-15T22:29:09.698Z,15.69
2022-10-15T22:31:37.596Z,15.68
2022-10-15T22:34:05.313Z,15.68
2022-10-15T22:36:33.125Z,15.65
2022-10-15T22:39:03.237Z,15.65
2022-10-15T22:41:33.462Z,15.56
2022-10-15T22:44:01.442Z,15.22
2022-10-15T22:46:33.060Z,15.51
2022-10-15T22:49:00.780Z,15.60
2022-10-15T22:51:28.921Z,15.62
2022-10-15T22:53:57.157Z,15.62
2022-10-15T22:56:26.267Z,15.61
2022-10-15T22:58:54.312Z,15.59
2022-10-15T23:01:24.004Z,15.61
2022-10-15T23:03:55.430Z,15.61
2022-10-15T23:06:24.334Z,15.59
2022-10-15T23:08:52.094Z,15.60
2022-10-15T23:11:22.036Z,15.61
2022-10-15T23:13:54.352Z,15.61
2022-10-15T23:16:24.119Z,15.59
2022-10-15T23:18:56.044Z,15.60
2022-10-15T23:21:29.685Z,15.45
2022-10-15T23:23:57.912Z,15.58
2022-10-15T23:26:26.103Z,15.57
2022-10-15T23:28:55.611Z,15.58
2022-10-15T23:31:25.636Z,15.59
2022-10-15T23:33:56.659Z,15.58
2022-10-15T23:36:25.667Z,15.57
2022-10-15T23:38:55.226Z,15.58
2022-10-15T23:41:23.711Z,15.54
2022-10-15T23:43:51.599Z,15.56
2022-10-15T23:46:19.885Z,15.57
2022-10-15T23:48:47.775Z,15.53
2022-10-15T23:51:19.875Z,15.24
2022-10-15T23:53:48.038Z,15.52
2022-10-15T23:56:16.008Z,15.33
2022-10-15T23:58:44.418Z,15.53
